sensor_id;sensor_type;location;lat;lon;timestamp;pressure;altitude;pressure_sealevel;temperature;humidity
74905;BME280;63465;50.862;6.220;2022-11-23T00:01:39;98046.72;;;8.75;73.56
74905;BME280;63465;50.862;6.220;2022-11-23T00:04:10;98057.06;;;8.78;73.29
74905;BME280;63465;50.862;6.220;2022-11-23T00:06:38;98045.66;;;8.78;73.49
74905;BME280;63465;50.862;6.220;2022-11-23T00:09:05;98058.31;;;8.72;74.07
74905;BME280;63465;50.862;6.220;2022-11-23T00:11:34;98058.44;;;8.71;73.68
74905;BME280;63465;50.862;6.220;2022-11-23T00:14:01;98054.22;;;8.68;73.88
74905;BME280;63465;50.862;6.220;2022-11-23T00:16:29;98056.44;;;8.74;73.65
74905;BME280;63465;50.862;6.220;2022-11-23T00:18:57;98051.88;;;8.77;73.82
74905;BME280;63465;50.862;6.220;2022-11-23T00:21:27;98063.31;;;8.77;73.69
74905;BME280;63465;50.862;6.220;2022-11-23T00:23:55;98060.97;;;8.72;73.39
74905;BME280;63465;50.862;6.220;2022-11-23T00:26:21;98056.88;;;8.68;73.76
74905;BME280;63465;50.862;6.220;2022-11-23T00:28:48;98057.38;;;8.73;73.33
74905;BME280;63465;50.862;6.220;2022-11-23T00:31:18;98063.00;;;8.69;73.60
74905;BME280;63465;50.862;6.220;2022-11-23T00:33:47;98057.06;;;8.65;73.61
74905;BME280;63465;50.862;6.220;2022-11-23T00:36:16;98073.97;;;8.63;73.59
74905;BME280;63465;50.862;6.220;2022-11-23T00:38:44;98074.09;;;8.61;73.75
74905;BME280;63465;50.862;6.220;2022-11-23T00:41:13;98071.53;;;8.60;74.00
74905;BME280;63465;50.862;6.220;2022-11-23T00:43:41;98067.44;;;8.68;73.36
74905;BME280;63465;50.862;6.220;2022-11-23T00:46:09;98073.16;;;8.62;73.80
74905;BME280;63465;50.862;6.220;2022-11-23T00:48:38;98075.78;;;8.62;73.70
74905;BME280;63465;50.862;6.220;2022-11-23T00:51:06;98074.28;;;8.58;74.07
74905;BME280;63465;50.862;6.220;2022-11-23T00:53:33;98071.75;;;8.56;74.15
74905;BME280;63465;50.862;6.220;2022-11-23T00:56:02;98072.47;;;8.59;73.87
74905;BME280;63465;50.862;6.220;2022-11-23T00:58:29;98073.25;;;8.61;74.00
74905;BME280;63465;50.862;6.220;2022-11-23T01:01:03;98073.25;;;8.61;73.76
74905;BME280;63465;50.862;6.220;2022-11-23T01:03:33;98076.72;;;8.61;73.63
74905;BME280;63465;50.862;6.220;2022-11-23T01:06:04;98090.56;;;8.65;73.38
74905;BME280;63465;50.862;6.220;2022-11-23T01:08:31;98067.53;;;8.67;73.38
74905;BME280;63465;50.862;6.220;2022-11-23T01:11:01;98074.50;;;8.68;73.28
74905;BME280;63465;50.862;6.220;2022-11-23T01:13:28;98079.06;;;8.66;73.45
74905;BME280;63465;50.862;6.220;2022-11-23T01:15:55;98084.66;;;8.61;73.78
74905;BME280;63465;50.862;6.220;2022-11-23T01:18:23;98084.97;;;8.69;73.43
74905;BME280;63465;50.862;6.220;2022-11-23T01:20:50;98089.22;;;8.72;73.12
74905;BME280;63465;50.862;6.220;2022-11-23T01:23:16;98094.00;;;8.80;72.78
74905;BME280;63465;50.862;6.220;2022-11-23T01:25:43;98089.53;;;8.80;72.58
74905;BME280;63465;50.862;6.220;2022-11-23T01:28:11;98102.66;;;8.82;73.21
74905;BME280;63465;50.862;6.220;2022-11-23T01:30:38;98096.44;;;8.83;72.71
74905;BME280;63465;50.862;6.220;2022-11-23T01:33:05;98093.16;;;8.79;72.79
74905;BME280;63465;50.862;6.220;2022-11-23T01:35:31;98093.56;;;8.86;72.45
74905;BME280;63465;50.862;6.220;2022-11-23T01:37:58;98103.31;;;8.85;72.56
74905;BME280;63465;50.862;6.220;2022-11-23T01:40:24;98098.88;;;8.86;72.24
74905;BME280;63465;50.862;6.220;2022-11-23T01:42:53;98111.78;;;8.90;72.59
74905;BME280;63465;50.862;6.220;2022-11-23T01:45:34;98108.41;;;8.88;72.11
74905;BME280;63465;50.862;6.220;2022-11-23T01:48:02;98110.94;;;8.90;72.02
74905;BME280;63465;50.862;6.220;2022-11-23T01:50:30;98117.19;;;8.89;72.28
74905;BME280;63465;50.862;6.220;2022-11-23T01:52:58;98120.44;;;8.92;72.02
74905;BME280;63465;50.862;6.220;2022-11-23T01:55:25;98108.50;;;8.87;72.26
74905;BME280;63465;50.862;6.220;2022-11-23T01:57:53;98116.44;;;8.87;72.33
74905;BME280;63465;50.862;6.220;2022-11-23T02:00:21;98119.09;;;8.87;72.20
74905;BME280;63465;50.862;6.220;2022-11-23T02:02:54;98114.09;;;8.82;72.18
74905;BME280;63465;50.862;6.220;2022-11-23T02:05:24;98114.44;;;8.90;71.88
74905;BME280;63465;50.862;6.220;2022-11-23T02:07:53;98120.88;;;8.86;72.39
74905;BME280;63465;50.862;6.220;2022-11-23T02:10:20;98127.84;;;8.87;71.80
74905;BME280;63465;50.862;6.220;2022-11-23T02:12:48;98124.38;;;8.87;72.23
74905;BME280;63465;50.862;6.220;2022-11-23T02:15:15;98134.53;;;8.93;71.86
74905;BME280;63465;50.862;6.220;2022-11-23T02:17:42;98130.19;;;8.92;71.67
74905;BME280;63465;50.862;6.220;2022-11-23T02:20:12;98136.31;;;8.92;71.72
74905;BME280;63465;50.862;6.220;2022-11-23T02:22:49;98131.13;;;8.91;71.95
74905;BME280;63465;50.862;6.220;2022-11-23T02:25:31;98136.63;;;8.88;71.46
74905;BME280;63465;50.862;6.220;2022-11-23T02:28:01;98142.47;;;8.93;71.22
74905;BME280;63465;50.862;6.220;2022-11-23T02:30:29;98133.97;;;8.88;71.78
74905;BME280;63465;50.862;6.220;2022-11-23T02:32:57;98137.28;;;8.91;71.47
74905;BME280;63465;50.862;6.220;2022-11-23T02:35:24;98138.97;;;8.92;71.32
74905;BME280;63465;50.862;6.220;2022-11-23T02:37:51;98139.84;;;8.93;71.53
74905;BME280;63465;50.862;6.220;2022-11-23T02:40:24;98133.47;;;8.96;70.77
74905;BME280;63465;50.862;6.220;2022-11-23T02:42:52;98130.19;;;8.92;70.97
74905;BME280;63465;50.862;6.220;2022-11-23T02:45:26;98124.91;;;8.92;71.01
74905;BME280;63465;50.862;6.220;2022-11-23T02:47:58;98127.84;;;8.87;70.83
74905;BME280;63465;50.862;6.220;2022-11-23T02:50:29;98143.94;;;8.84;70.85
74905;BME280;63465;50.862;6.220;2022-11-23T02:52:56;98127.66;;;8.90;70.48
74905;BME280;63465;50.862;6.220;2022-11-23T02:55:23;98129.47;;;8.90;70.36
74905;BME280;63465;50.862;6.220;2022-11-23T02:57:51;98130.41;;;8.89;69.88
74905;BME280;63465;50.862;6.220;2022-11-23T03:00:18;98132.84;;;8.92;70.00
74905;BME280;63465;50.862;6.220;2022-11-23T03:02:47;98122.56;;;8.87;70.37
74905;BME280;63465;50.862;6.220;2022-11-23T03:05:15;98132.22;;;8.88;69.88
74905;BME280;63465;50.862;6.220;2022-11-23T03:07:41;98130.72;;;8.84;70.14
74905;BME280;63465;50.862;6.220;2022-11-23T03:10:11;98127.75;;;8.89;70.18
74905;BME280;63465;50.862;6.220;2022-11-23T03:12:37;98137.03;;;8.82;70.24
74905;BME280;63465;50.862;6.220;2022-11-23T03:15:05;98127.34;;;8.82;70.66
74905;BME280;63465;50.862;6.220;2022-11-23T03:17:32;98127.44;;;8.81;70.09
74905;BME280;63465;50.862;6.220;2022-11-23T03:20:02;98128.81;;;8.86;70.28
74905;BME280;63465;50.862;6.220;2022-11-23T03:22:35;98135.06;;;8.85;70.32
74905;BME280;63465;50.862;6.220;2022-11-23T03:25:03;98135.06;;;8.85;70.43
74905;BME280;63465;50.862;6.220;2022-11-23T03:31:36;98131.34;;;8.88;69.92
74905;BME280;63465;50.862;6.220;2022-11-23T03:34:07;98135.25;;;8.82;70.42
74905;BME280;63465;50.862;6.220;2022-11-23T03:36:36;98133.16;;;8.87;70.58
74905;BME280;63465;50.862;6.220;2022-11-23T03:39:03;98137.59;;;8.87;69.81
74905;BME280;63465;50.862;6.220;2022-11-23T03:42:05;98132.41;;;8.85;70.21
74905;BME280;63465;50.862;6.220;2022-11-23T03:44:33;98128.28;;;8.81;70.24
74905;BME280;63465;50.862;6.220;2022-11-23T03:47:00;98132.81;;;8.79;70.22
74905;BME280;63465;50.862;6.220;2022-11-23T03:49:27;98142.63;;;8.77;70.60
74905;BME280;63465;50.862;6.220;2022-11-23T03:51:55;98146.88;;;8.80;70.49
74905;BME280;63465;50.862;6.220;2022-11-23T03:54:22;98141.91;;;8.75;71.07
74905;BME280;63465;50.862;6.220;2022-11-23T03:56:49;98141.16;;;8.73;71.01
74905;BME280;63465;50.862;6.220;2022-11-23T03:59:16;98144.56;;;8.75;70.95
74905;BME280;63465;50.862;6.220;2022-11-23T04:01:43;98129.41;;;8.77;70.92
74905;BME280;63465;50.862;6.220;2022-11-23T04:04:17;98142.63;;;8.77;71.33
74905;BME280;63465;50.862;6.220;2022-11-23T04:06:53;98136.09;;;8.70;71.38
74905;BME280;63465;50.862;6.220;2022-11-23T04:09:25;98131.75;;;8.69;71.53
74905;BME280;63465;50.862;6.220;2022-11-23T04:12:04;98140.59;;;8.68;71.91
74905;BME280;63465;50.862;6.220;2022-11-23T04:14:34;98143.03;;;8.71;72.07
74905;BME280;63465;50.862;6.220;2022-11-23T04:17:00;98146.88;;;8.67;72.08
74905;BME280;63465;50.862;6.220;2022-11-23T04:19:29;98138.94;;;8.67;72.57
74905;BME280;63465;50.862;6.220;2022-11-23T04:21:56;98136.59;;;8.62;72.30
74905;BME280;63465;50.862;6.220;2022-11-23T04:24:23;98140.91;;;8.63;72.68
74905;BME280;63465;50.862;6.220;2022-11-23T04:26:54;98141.78;;;8.64;72.57
74905;BME280;63465;50.862;6.220;2022-11-23T04:38:13;98139.38;;;8.46;73.71
74905;BME280;63465;50.862;6.220;2022-11-23T04:40:41;98139.13;;;8.36;74.53
74905;BME280;63465;50.862;6.220;2022-11-23T04:43:09;98138.00;;;8.26;75.66
74905;BME280;63465;50.862;6.220;2022-11-23T04:45:37;98144.13;;;8.27;75.80
74905;BME280;63465;50.862;6.220;2022-11-23T04:48:08;98145.84;;;8.28;75.14
74905;BME280;63465;50.862;6.220;2022-11-23T04:50:36;98146.47;;;8.31;74.88
74905;BME280;63465;50.862;6.220;2022-11-23T04:53:03;98147.97;;;8.35;74.20
74905;BME280;63465;50.862;6.220;2022-11-23T04:55:38;98134.66;;;8.37;74.25
74905;BME280;63465;50.862;6.220;2022-11-23T04:58:05;98135.91;;;8.31;74.14
74905;BME280;63465;50.862;6.220;2022-11-23T05:00:34;98145.53;;;8.32;74.57
74905;BME280;63465;50.862;6.220;2022-11-23T05:03:03;98142.06;;;8.32;74.43
74905;BME280;63465;50.862;6.220;2022-11-23T05:05:32;98135.69;;;8.34;74.60
74905;BME280;63465;50.862;6.220;2022-11-23T05:08:00;98130.22;;;8.37;74.22
74905;BME280;63465;50.862;6.220;2022-11-23T05:10:40;98141.75;;;8.36;74.12
74905;BME280;63465;50.862;6.220;2022-11-23T05:13:07;98136.28;;;8.39;73.30
74905;BME280;63465;50.862;6.220;2022-11-23T05:15:35;98137.09;;;8.40;73.43
74905;BME280;63465;50.862;6.220;2022-11-23T05:18:03;98137.00;;;8.42;72.84
74905;BME280;63465;50.862;6.220;2022-11-23T05:20:31;98129.53;;;8.48;72.34
74905;BME280;63465;50.862;6.220;2022-11-23T05:22:58;98137.28;;;8.51;72.09
74905;BME280;63465;50.862;6.220;2022-11-23T05:25:25;98130.50;;;8.47;71.94
74905;BME280;63465;50.862;6.220;2022-11-23T05:27:59;98133.25;;;8.46;72.18
74905;BME280;63465;50.862;6.220;2022-11-23T05:30:27;98128.97;;;8.43;72.15
74905;BME280;63465;50.862;6.220;2022-11-23T05:33:00;98132.50;;;8.44;71.87
74905;BME280;63465;50.862;6.220;2022-11-23T05:35:28;98128.13;;;8.43;71.97
74905;BME280;63465;50.862;6.220;2022-11-23T05:37:58;98132.56;;;8.42;71.67
74905;BME280;63465;50.862;6.220;2022-11-23T05:40:25;98134.66;;;8.37;71.67
74905;BME280;63465;50.862;6.220;2022-11-23T05:42:56;98135.31;;;8.40;71.18
74905;BME280;63465;50.862;6.220;2022-11-23T05:45:23;98132.97;;;8.36;70.95
74905;BME280;63465;50.862;6.220;2022-11-23T05:47:54;98128.63;;;8.35;70.76
74905;BME280;63465;50.862;6.220;2022-11-23T05:50:32;98129.59;;;8.34;70.91
74905;BME280;63465;50.862;6.220;2022-11-23T05:53:37;98120.91;;;8.32;70.45
74905;BME280;63465;50.862;6.220;2022-11-23T05:56:11;98119.31;;;8.29;70.31
74905;BME280;63465;50.862;6.220;2022-11-23T05:58:50;98123.09;;;8.25;70.31
74905;BME280;63465;50.862;6.220;2022-11-23T06:01:17;98120.84;;;8.19;70.31
74905;BME280;63465;50.862;6.220;2022-11-23T06:03:44;98117.47;;;8.17;70.25
74905;BME280;63465;50.862;6.220;2022-11-23T06:06:12;98122.56;;;8.20;69.83
74905;BME280;63465;50.862;6.220;2022-11-23T06:08:41;98126.22;;;8.17;69.65
74905;BME280;63465;50.862;6.220;2022-11-23T06:11:08;98121.03;;;8.16;69.13
74905;BME280;63465;50.862;6.220;2022-11-23T06:13:34;98126.59;;;8.26;67.95
74905;BME280;63465;50.862;6.220;2022-11-23T06:16:01;98136.50;;;8.22;67.98
74905;BME280;63465;50.862;6.220;2022-11-23T06:18:38;98130.19;;;8.25;67.85
74905;BME280;63465;50.862;6.220;2022-11-23T06:21:07;98131.59;;;8.30;67.22
74905;BME280;63465;50.862;6.220;2022-11-23T06:23:36;98139.63;;;8.29;67.23
74905;BME280;63465;50.862;6.220;2022-11-23T06:26:03;98133.84;;;8.22;67.40
74905;BME280;63465;50.862;6.220;2022-11-23T06:28:31;98139.34;;;8.19;67.45
74905;BME280;63465;50.862;6.220;2022-11-23T06:31:01;98133.50;;;8.14;67.33
74905;BME280;63465;50.862;6.220;2022-11-23T06:33:30;98133.06;;;8.07;67.56
74905;BME280;63465;50.862;6.220;2022-11-23T06:35:59;98133.81;;;8.09;67.68
74905;BME280;63465;50.862;6.220;2022-11-23T06:38:32;98139.28;;;8.06;67.60
74905;BME280;63465;50.862;6.220;2022-11-23T06:41:23;98134.78;;;7.94;67.88
74905;BME280;63465;50.862;6.220;2022-11-23T06:43:50;98143.09;;;7.88;68.24
74905;BME280;63465;50.862;6.220;2022-11-23T06:46:27;98146.41;;;7.77;68.57
74905;BME280;63465;50.862;6.220;2022-11-23T06:48:54;98146.69;;;7.72;68.76
74905;BME280;63465;50.862;6.220;2022-11-23T06:51:20;98156.28;;;7.73;68.95
74905;BME280;63465;50.862;6.220;2022-11-23T06:53:49;98166.03;;;7.73;69.03
74905;BME280;63465;50.862;6.220;2022-11-23T06:56:16;98167.34;;;7.65;69.16
74905;BME280;63465;50.862;6.220;2022-11-23T06:58:45;98169.31;;;7.62;69.31
74905;BME280;63465;50.862;6.220;2022-11-23T07:01:16;98169.50;;;7.59;69.41
74905;BME280;63465;50.862;6.220;2022-11-23T07:03:52;98174.97;;;7.56;69.61
74905;BME280;63465;50.862;6.220;2022-11-23T07:06:32;98183.56;;;7.59;69.59
74905;BME280;63465;50.862;6.220;2022-11-23T07:09:04;98181.19;;;7.55;69.75
74905;BME280;63465;50.862;6.220;2022-11-23T07:11:49;98178.94;;;7.48;69.96
74905;BME280;63465;50.862;6.220;2022-11-23T07:14:18;98175.81;;;7.42;70.10
74905;BME280;63465;50.862;6.220;2022-11-23T07:16:47;98184.22;;;7.48;69.92
74905;BME280;63465;50.862;6.220;2022-11-23T07:19:14;98183.28;;;7.49;70.09
74905;BME280;63465;50.862;6.220;2022-11-23T07:21:41;98187.34;;;7.55;69.68
74905;BME280;63465;50.862;6.220;2022-11-23T07:24:08;98200.44;;;7.57;69.63
74905;BME280;63465;50.862;6.220;2022-11-23T07:26:35;98196.00;;;7.43;70.18
74905;BME280;63465;50.862;6.220;2022-11-23T07:29:03;98209.09;;;7.44;70.34
74905;BME280;63465;50.862;6.220;2022-11-23T07:31:31;98214.28;;;7.46;70.26
74905;BME280;63465;50.862;6.220;2022-11-23T07:33:58;98207.22;;;7.46;69.93
74905;BME280;63465;50.862;6.220;2022-11-23T07:36:25;98214.09;;;7.49;69.94
74905;BME280;63465;50.862;6.220;2022-11-23T07:38:51;98210.59;;;7.48;69.89
74905;BME280;63465;50.862;6.220;2022-11-23T07:41:19;98214.00;;;7.50;69.99
74905;BME280;63465;50.862;6.220;2022-11-23T07:44:13;98219.47;;;7.47;69.94
74905;BME280;63465;50.862;6.220;2022-11-23T07:46:41;98206.84;;;7.53;69.64
74905;BME280;63465;50.862;6.220;2022-11-23T07:49:08;98220.22;;;7.49;69.25
74905;BME280;63465;50.862;6.220;2022-11-23T07:51:34;98221.34;;;7.45;69.61
74905;BME280;63465;50.862;6.220;2022-11-23T07:54:01;98213.47;;;7.60;68.99
74905;BME280;63465;50.862;6.220;2022-11-23T07:56:28;98219.38;;;7.63;68.81
74905;BME280;63465;50.862;6.220;2022-11-23T07:58:54;98211.56;;;7.62;68.83
74905;BME280;63465;50.862;6.220;2022-11-23T08:01:21;98217.69;;;7.62;68.29
74905;BME280;63465;50.862;6.220;2022-11-23T08:03:49;98216.38;;;7.70;68.03
74905;BME280;63465;50.862;6.220;2022-11-23T08:06:16;98216.09;;;7.74;67.70
74905;BME280;63465;50.862;6.220;2022-11-23T08:08:43;98218.72;;;7.74;67.49
74905;BME280;63465;50.862;6.220;2022-11-23T08:11:10;98213.81;;;7.82;67.20
74905;BME280;63465;50.862;6.220;2022-11-23T08:13:39;98223.44;;;7.83;66.72
74905;BME280;63465;50.862;6.220;2022-11-23T08:16:06;98214.31;;;7.89;66.45
74905;BME280;63465;50.862;6.220;2022-11-23T08:18:33;98234.97;;;7.97;66.07
74905;BME280;63465;50.862;6.220;2022-11-23T08:21:01;98227.22;;;7.94;66.13
74905;BME280;63465;50.862;6.220;2022-11-23T08:23:28;98227.69;;;8.00;65.74
74905;BME280;63465;50.862;6.220;2022-11-23T08:25:54;98230.13;;;8.03;65.70
74905;BME280;63465;50.862;6.220;2022-11-23T08:28:21;98235.22;;;8.07;65.82
74905;BME280;63465;50.862;6.220;2022-11-23T08:30:48;98228.91;;;8.09;65.33
74905;BME280;63465;50.862;6.220;2022-11-23T08:33:15;98230.72;;;8.09;65.60
74905;BME280;63465;50.862;6.220;2022-11-23T08:35:42;98236.25;;;8.18;65.09
74905;BME280;63465;50.862;6.220;2022-11-23T08:38:10;98242.47;;;8.17;64.74
74905;BME280;63465;50.862;6.220;2022-11-23T08:40:37;98236.91;;;8.22;63.97
74905;BME280;63465;50.862;6.220;2022-11-23T08:43:04;98241.78;;;8.28;63.64
74905;BME280;63465;50.862;6.220;2022-11-23T08:45:31;98238.88;;;8.33;63.19
74905;BME280;63465;50.862;6.220;2022-11-23T08:47:58;98226.97;;;8.40;62.28
74905;BME280;63465;50.862;6.220;2022-11-23T08:50:25;98232.34;;;8.38;62.77
74905;BME280;63465;50.862;6.220;2022-11-23T08:52:54;98237.91;;;8.48;62.58
74905;BME280;63465;50.862;6.220;2022-11-23T08:55:22;98240.25;;;8.53;62.25
74905;BME280;63465;50.862;6.220;2022-11-23T08:57:49;98236.50;;;8.57;62.72
74905;BME280;63465;50.862;6.220;2022-11-23T09:00:16;98231.00;;;8.60;62.11
74905;BME280;63465;50.862;6.220;2022-11-23T09:02:44;98218.28;;;8.52;62.24
74905;BME280;63465;50.862;6.220;2022-11-23T09:05:11;98230.59;;;8.66;62.39
74905;BME280;63465;50.862;6.220;2022-11-23T09:07:38;98232.50;;;8.64;62.42
74905;BME280;63465;50.862;6.220;2022-11-23T09:10:06;98225.91;;;8.57;62.70
74905;BME280;63465;50.862;6.220;2022-11-23T09:12:34;98234.03;;;8.68;62.93
74905;BME280;63465;50.862;6.220;2022-11-23T09:15:01;98234.03;;;8.68;63.34
74905;BME280;63465;50.862;6.220;2022-11-23T09:17:29;98240.19;;;8.82;63.15
74905;BME280;63465;50.862;6.220;2022-11-23T09:19:56;98239.75;;;8.75;62.82
74905;BME280;63465;50.862;6.220;2022-11-23T09:22:23;98252.34;;;8.71;63.12
74905;BME280;63465;50.862;6.220;2022-11-23T09:24:49;98251.25;;;8.74;63.50
74905;BME280;63465;50.862;6.220;2022-11-23T09:27:16;98237.41;;;8.70;63.60
74905;BME280;63465;50.862;6.220;2022-11-23T09:29:44;98237.31;;;8.72;64.22
74905;BME280;63465;50.862;6.220;2022-11-23T09:32:11;98221.88;;;8.79;64.28
74905;BME280;63465;50.862;6.220;2022-11-23T09:34:37;98219.22;;;8.79;63.47
74905;BME280;63465;50.862;6.220;2022-11-23T09:37:04;98220.72;;;8.83;63.18
74905;BME280;63465;50.862;6.220;2022-11-23T09:39:31;98204.03;;;8.82;62.42
74905;BME280;63465;50.862;6.220;2022-11-23T09:42:29;98206.81;;;8.93;63.11
74905;BME280;63465;50.862;6.220;2022-11-23T09:45:10;98198.97;;;9.05;62.78
74905;BME280;63465;50.862;6.220;2022-11-23T09:47:51;98191.81;;;9.20;62.37
74905;BME280;63465;50.862;6.220;2022-11-23T09:50:25;98193.44;;;9.22;61.74
74905;BME280;63465;50.862;6.220;2022-11-23T09:52:52;98188.44;;;9.31;61.65
74905;BME280;63465;50.862;6.220;2022-11-23T09:55:26;98189.72;;;9.38;61.02
74905;BME280;63465;50.862;6.220;2022-11-23T09:58:00;98180.72;;;9.53;60.86
74905;BME280;63465;50.862;6.220;2022-11-23T10:00:35;98171.31;;;9.62;60.59
74905;BME280;63465;50.862;6.220;2022-11-23T10:03:02;98160.91;;;9.72;60.34
74905;BME280;63465;50.862;6.220;2022-11-23T10:05:32;98167.47;;;9.79;59.32
74905;BME280;63465;50.862;6.220;2022-11-23T10:08:08;98166.00;;;9.88;59.12
74905;BME280;63465;50.862;6.220;2022-11-23T10:10:40;98162.25;;;10.03;59.19
74905;BME280;63465;50.862;6.220;2022-11-23T10:13:19;98160.72;;;10.12;57.49
74905;BME280;63465;50.862;6.220;2022-11-23T10:16:01;98141.66;;;10.07;57.38
74905;BME280;63465;50.862;6.220;2022-11-23T10:18:37;98140.44;;;10.24;57.13
74905;BME280;63465;50.862;6.220;2022-11-23T10:21:13;98151.94;;;10.73;56.89
74905;BME280;63465;50.862;6.220;2022-11-23T10:23:55;98141.16;;;11.68;53.28
74905;BME280;63465;50.862;6.220;2022-11-23T10:26:27;98144.19;;;12.52;50.72
74905;BME280;63465;50.862;6.220;2022-11-23T10:28:56;98139.13;;;13.66;48.31
74905;BME280;63465;50.862;6.220;2022-11-23T10:31:27;98131.81;;;13.99;46.35
74905;BME280;63465;50.862;6.220;2022-11-23T10:34:01;98141.88;;;13.85;46.91
74905;BME280;63465;50.862;6.220;2022-11-23T10:36:29;98139.28;;;14.05;46.43
74905;BME280;63465;50.862;6.220;2022-11-23T10:38:58;98122.00;;;14.79;44.29
74905;BME280;63465;50.862;6.220;2022-11-23T10:41:28;98119.88;;;14.73;44.55
74905;BME280;63465;50.862;6.220;2022-11-23T10:44:01;98120.03;;;14.81;44.29
74905;BME280;63465;50.862;6.220;2022-11-23T10:46:37;98115.38;;;15.22;42.69
74905;BME280;63465;50.862;6.220;2022-11-23T10:49:16;98120.22;;;15.46;42.95
74905;BME280;63465;50.862;6.220;2022-11-23T10:51:51;98126.16;;;14.33;45.32
74905;BME280;63465;50.862;6.220;2022-11-23T10:54:22;98134.19;;;14.52;45.39
74905;BME280;63465;50.862;6.220;2022-11-23T10:56:51;98136.19;;;14.70;44.55
74905;BME280;63465;50.862;6.220;2022-11-23T10:59:27;98143.25;;;14.11;46.52
74905;BME280;63465;50.862;6.220;2022-11-23T11:02:15;98132.03;;;14.26;45.52
74905;BME280;63465;50.862;6.220;2022-11-23T11:04:43;98142.06;;;13.94;46.47
74905;BME280;63465;50.862;6.220;2022-11-23T11:07:19;98133.25;;;14.92;45.01
74905;BME280;63465;50.862;6.220;2022-11-23T11:09:51;98133.19;;;14.34;45.57
74905;BME280;63465;50.862;6.220;2022-11-23T11:12:18;98131.63;;;13.50;47.63
74905;BME280;63465;50.862;6.220;2022-11-23T11:15:12;98127.06;;;14.62;46.05
74905;BME280;63465;50.862;6.220;2022-11-23T11:17:41;98119.66;;;14.25;45.52
74905;BME280;63465;50.862;6.220;2022-11-23T11:20:28;98124.16;;;12.80;48.84
74905;BME280;63465;50.862;6.220;2022-11-23T11:22:57;98125.78;;;12.17;50.72
74905;BME280;63465;50.862;6.220;2022-11-23T11:25:29;98125.78;;;12.93;49.47
74905;BME280;63465;50.862;6.220;2022-11-23T11:27:56;98123.34;;;12.25;49.92
74905;BME280;63465;50.862;6.220;2022-11-23T11:30:25;98129.91;;;11.75;51.02
74905;BME280;63465;50.862;6.220;2022-11-23T11:33:01;98126.66;;;11.60;51.73
74905;BME280;63465;50.862;6.220;2022-11-23T11:35:33;98135.47;;;12.18;51.44
74905;BME280;63465;50.862;6.220;2022-11-23T11:38:04;98132.06;;;11.59;52.61
74905;BME280;63465;50.862;6.220;2022-11-23T11:40:36;98123.41;;;12.46;49.82
74905;BME280;63465;50.862;6.220;2022-11-23T11:43:08;98128.72;;;11.57;52.11
74905;BME280;63465;50.862;6.220;2022-11-23T11:45:37;98113.41;;;12.71;49.84
74905;BME280;63465;50.862;6.220;2022-11-23T11:48:12;98117.19;;;13.83;46.47
74905;BME280;63465;50.862;6.220;2022-11-23T11:50:49;98105.75;;;13.19;47.37
74905;BME280;63465;50.862;6.220;2022-11-23T11:53:22;98110.28;;;14.21;45.27
74905;BME280;63465;50.862;6.220;2022-11-23T11:55:53;98090.03;;;14.09;45.21
74905;BME280;63465;50.862;6.220;2022-11-23T11:58:22;98080.97;;;14.80;44.02
74905;BME280;63465;50.862;6.220;2022-11-23T12:00:50;98071.59;;;15.80;41.46
74905;BME280;63465;50.862;6.220;2022-11-23T12:03:30;98063.34;;;15.16;41.88
74905;BME280;63465;50.862;6.220;2022-11-23T12:06:07;98063.22;;;14.30;43.64
74905;BME280;63465;50.862;6.220;2022-11-23T12:08:42;98062.53;;;14.18;44.10
74905;BME280;63465;50.862;6.220;2022-11-23T12:11:12;98052.84;;;14.07;44.82
74905;BME280;63465;50.862;6.220;2022-11-23T12:13:41;98043.22;;;13.85;44.88
74905;BME280;63465;50.862;6.220;2022-11-23T12:16:15;98036.56;;;14.79;43.29
74905;BME280;63465;50.862;6.220;2022-11-23T12:19:04;98028.75;;;15.15;42.09
74905;BME280;63465;50.862;6.220;2022-11-23T12:21:58;98032.16;;;15.45;42.14
74905;BME280;63465;50.862;6.220;2022-11-23T12:24:38;98030.13;;;16.30;39.97
74905;BME280;63465;50.862;6.220;2022-11-23T12:27:18;98016.25;;;16.89;38.42
74905;BME280;63465;50.862;6.220;2022-11-23T12:30:05;98017.47;;;16.76;38.95
74905;BME280;63465;50.862;6.220;2022-11-23T12:32:44;98021.06;;;15.67;41.50
74905;BME280;63465;50.862;6.220;2022-11-23T12:35:50;98026.31;;;15.31;41.87
74905;BME280;63465;50.862;6.220;2022-11-23T12:38:29;98012.72;;;15.15;41.62
74905;BME280;63465;50.862;6.220;2022-11-23T12:41:13;98029.06;;;15.77;41.79
74905;BME280;63465;50.862;6.220;2022-11-23T12:43:53;98020.47;;;15.08;42.79
74905;BME280;63465;50.862;6.220;2022-11-23T12:46:31;98027.25;;;14.93;43.30
74905;BME280;63465;50.862;6.220;2022-11-23T12:49:12;98020.38;;;12.90;47.96
74905;BME280;63465;50.862;6.220;2022-11-23T12:51:56;98032.06;;;11.92;50.82
74905;BME280;63465;50.862;6.220;2022-11-23T12:54:40;98035.16;;;11.19;52.79
74905;BME280;63465;50.862;6.220;2022-11-23T12:57:14;98040.91;;;11.13;53.42
74905;BME280;63465;50.862;6.220;2022-11-23T12:59:46;98030.81;;;11.18;53.87
74905;BME280;63465;50.862;6.220;2022-11-23T13:05:21;98037.88;;;10.84;54.83
74905;BME280;63465;50.862;6.220;2022-11-23T13:08:08;98038.34;;;10.78;55.24
74905;BME280;63465;50.862;6.220;2022-11-23T13:10:46;98039.16;;;10.56;55.66
74905;BME280;63465;50.862;6.220;2022-11-23T13:13:48;98024.06;;;10.56;55.42
74905;BME280;63465;50.862;6.220;2022-11-23T13:16:44;98029.31;;;10.69;56.06
74905;BME280;63465;50.862;6.220;2022-11-23T13:19:33;98020.69;;;10.54;55.79
74905;BME280;63465;50.862;6.220;2022-11-23T13:22:05;98023.34;;;10.54;55.71
74905;BME280;63465;50.862;6.220;2022-11-23T13:24:38;98023.34;;;10.54;55.80
74905;BME280;63465;50.862;6.220;2022-11-23T13:27:28;98023.13;;;10.57;56.63
74905;BME280;63465;50.862;6.220;2022-11-23T13:29:56;98021.94;;;10.61;56.42
74905;BME280;63465;50.862;6.220;2022-11-23T13:32:45;98019.75;;;10.66;56.57
74905;BME280;63465;50.862;6.220;2022-11-23T13:35:55;98008.16;;;10.56;56.56
74905;BME280;63465;50.862;6.220;2022-11-23T13:38:39;98012.09;;;10.39;57.10
74905;BME280;63465;50.862;6.220;2022-11-23T13:44:19;98015.63;;;10.51;56.95
74905;BME280;63465;50.862;6.220;2022-11-23T13:46:56;98023.69;;;10.49;57.14
74905;BME280;63465;50.862;6.220;2022-11-23T13:49:29;98005.72;;;10.42;57.06